Time,TemperatureF,DewpointF,PressureIn,WindDirection,WindDirectionDegrees,WindSpeedMPH,WindSpeedGustMPH,Humidity,HourlyPrecipIn,Conditions,Clouds,dailyrainin,SolarRadiationWatts/m^2,SoftwareType,DateUTC
2013-02-13 00:01:00,-13.0,-20.0,-100.00,NE,45,0.0,0.0,70,0.00,,,0.00,0.000000,,2013-02-13 09:01:00,
2013-02-13 00:52:00,-15.0,-22.0,-100.00,ESE,120,0.0,0.0,70,-99.99,,,0.00,0.000000,,2013-02-13 09:52:00,
2013-02-13 01:01:00,-15.0,-22.0,-100.00,ESE,120,0.0,0.0,70,-99.99,,,0.00,0.000000,,2013-02-13 10:01:00,
2013-02-13 01:52:00,-15.0,-22.0,-100.00,SW,216,0.0,3.0,69,-99.99,,,0.00,0.000000,,2013-02-13 10:52:00,
2013-02-13 02:01:00,-15.0,-22.0,-100.00,SW,216,0.0,3.0,69,-99.99,,,0.00,0.000000,,2013-02-13 11:01:00,
2013-02-13 02:52:00,-16.0,-23.0,-100.00,SSW,211,0.0,0.0,71,-99.99,,,0.00,0.000000,,2013-02-13 11:52:00,
2013-02-13 03:02:00,-16.0,-23.0,-100.00,SSW,211,0.0,0.0,71,-99.99,,,0.00,0.000000,,2013-02-13 12:02:00,
2013-02-13 03:52:00,-14.0,-20.0,-100.00,NNE,31,0.0,0.0,72,-99.99,,,0.00,0.000000,,2013-02-13 12:52:00,
2013-02-13 04:02:00,-14.0,-20.0,-100.00,NNE,31,0.0,0.0,72,-99.99,,,0.00,0.000000,,2013-02-13 13:02:00,
2013-02-13 04:52:00,-16.0,-23.0,-100.00,SSE,162,0.0,0.0,70,-99.99,,,0.00,0.000000,,2013-02-13 13:52:00,
2013-02-13 05:01:00,-16.0,-23.0,-100.00,SSE,162,0.0,0.0,70,-99.99,,,0.00,0.000000,,2013-02-13 14:01:00,
2013-02-13 05:52:00,-15.0,-22.0,-100.00,SSE,157,0.0,0.0,70,-99.99,,,0.00,0.000000,,2013-02-13 14:52:00,
2013-02-13 06:01:00,-15.0,-22.0,-100.00,SSE,157,0.0,0.0,70,-99.99,,,0.00,0.000000,,2013-02-13 15:01:00,
2013-02-13 06:52:00,-13.0,-20.0,-100.00,NE,52,0.0,0.0,71,-99.99,,,-99.99,0.000000,,2013-02-13 15:52:00,
2013-02-13 07:01:00,-13.0,-20.0,-100.00,NE,52,0.0,0.0,71,-99.99,,,-99.99,0.000000,,2013-02-13 16:01:00,
2013-02-13 07:52:00,-13.0,-20.0,-100.00,SE,141,0.0,0.0,70,-99.99,,,0.00,0.000000,,2013-02-13 16:52:00,
2013-02-13 08:01:00,-13.0,-20.0,-100.00,SE,141,0.0,0.0,70,-99.99,,,0.00,0.000000,,2013-02-13 17:01:00,
2013-02-13 08:52:00,-13.0,-20.0,-100.00,ESE,122,0.0,0.0,71,-99.99,,,0.00,0.000000,,2013-02-13 17:52:00,
2013-02-13 09:01:00,-13.0,-20.0,-100.00,ESE,122,0.0,0.0,71,-99.99,,,0.00,0.000000,,2013-02-13 18:01:00,
2013-02-13 09:52:00,-12.0,-19.0,-100.00,North,11,0.0,0.0,70,-99.99,,,0.00,4.000000,,2013-02-13 18:52:00,
2013-02-13 10:01:00,-12.0,-19.0,-100.00,North,11,0.0,0.0,70,-99.99,,,0.00,4.000000,,2013-02-13 19:01:00,
2013-02-13 10:52:00,-10.0,-17.0,-100.00,East,86,0.0,0.0,72,0.00,,,0.00,21.000000,,2013-02-13 19:52:00,
2013-02-13 11:02:00,-10.0,-17.0,-100.00,East,86,0.0,0.0,72,0.00,,,0.00,21.000000,,2013-02-13 20:02:00,
2013-02-13 11:11:00,-10.0,-17.0,-100.00,East,86,0.0,0.0,72,0.00,,,0.00,21.000000,,2013-02-13 20:11:00,
2013-02-13 11:52:00,-8.0,-14.0,-100.00,SE,128,0.0,0.0,74,0.00,,,0.00,22.000000,,2013-02-13 20:52:00,
2013-02-13 12:01:00,-8.0,-14.0,-100.00,SE,128,0.0,0.0,74,0.00,,,0.00,22.000000,,2013-02-13 21:01:00,
2013-02-13 12:52:00,-1.0,-6.0,-100.00,North,5,0.0,0.0,78,-99.99,,,0.00,42.000000,,2013-02-13 21:52:00,
2013-02-13 13:02:00,-1.0,-6.0,-100.00,North,5,0.0,0.0,78,-99.99,,,0.00,42.000000,,2013-02-13 22:02:00,
2013-02-13 13:11:00,-1.0,-6.0,-100.00,North,5,0.0,0.0,78,-99.99,,,0.00,42.000000,,2013-02-13 22:11:00,
2013-02-13 13:21:00,-1.0,-6.0,-100.00,North,5,0.0,0.0,78,-99.99,,,0.00,42.000000,,2013-02-13 22:21:00,
2013-02-13 13:52:00,1.0,-4.0,-100.00,WSW,240,0.0,0.0,77,0.00,,,0.00,48.000000,,2013-02-13 22:52:00,
2013-02-13 14:01:00,1.0,-4.0,-100.00,WSW,240,0.0,0.0,77,0.00,,,0.00,48.000000,,2013-02-13 23:01:00,
2013-02-13 14:11:00,1.0,-4.0,-100.00,WSW,240,0.0,0.0,77,0.00,,,0.00,48.000000,,2013-02-13 23:11:00,
2013-02-13 14:21:00,1.0,-4.0,-100.00,WSW,240,0.0,0.0,77,0.00,,,0.00,48.000000,,2013-02-13 23:21:00,
2013-02-13 14:52:00,6.0,1.0,-100.00,NE,37,1.0,3.0,80,0.00,,,0.00,52.000000,,2013-02-13 23:52:00,
2013-02-13 15:01:00,6.0,1.0,-100.00,NE,37,1.0,3.0,80,0.00,,,0.00,52.000000,,2013-02-14 00:01:00,
2013-02-13 15:11:00,6.0,1.0,-100.00,NE,37,1.0,3.0,80,0.00,,,0.00,52.000000,,2013-02-14 00:11:00,
2013-02-13 15:21:00,6.0,1.0,-100.00,NE,37,1.0,3.0,80,0.00,,,0.00,52.000000,,2013-02-14 00:21:00,
2013-02-13 15:52:00,10.0,4.0,-100.00,ESE,105,2.0,3.0,77,0.00,,,0.00,39.000000,,2013-02-14 00:52:00,
2013-02-13 16:01:00,10.0,4.0,-100.00,ESE,105,2.0,3.0,77,0.00,,,0.00,39.000000,,2013-02-14 01:01:00,
2013-02-13 16:11:00,10.0,4.0,-100.00,ESE,105,2.0,3.0,77,0.00,,,0.00,39.000000,,2013-02-14 01:11:00,
2013-02-13 16:21:00,10.0,4.0,-100.00,ESE,105,2.0,3.0,77,0.00,,,0.00,39.000000,,2013-02-14 01:21:00,
2013-02-13 16:51:00,11.0,5.0,-100.00,SE,137,3.0,6.0,75,0.00,,,0.00,24.000000,,2013-02-14 01:51:00,
2013-02-13 17:01:00,11.0,5.0,-100.00,SE,137,3.0,6.0,75,0.00,,,0.00,24.000000,,2013-02-14 02:01:00,
2013-02-13 17:11:00,11.0,5.0,-100.00,SE,137,3.0,6.0,75,0.00,,,0.00,24.000000,,2013-02-14 02:11:00,
2013-02-13 17:21:00,11.0,5.0,-100.00,SE,137,3.0,6.0,75,0.00,,,0.00,24.000000,,2013-02-14 02:21:00,
2013-02-13 18:02:00,2.0,-3.0,-100.00,ENE,72,1.0,4.0,79,0.00,,,0.00,6.000000,,2013-02-14 03:02:00,
2013-02-13 18:52:00,0.0,-4.0,-100.00,NW,312,2.0,8.0,84,-99.99,,,0.00,1.000000,,2013-02-14 03:52:00,
2013-02-13 19:01:00,0.0,-4.0,-100.00,NW,312,2.0,8.0,84,-99.99,,,0.00,1.000000,,2013-02-14 04:01:00,
2013-02-13 19:21:00,0.0,-4.0,-100.00,NW,312,2.0,8.0,84,-99.99,,,0.00,1.000000,,2013-02-14 04:21:00,
2013-02-13 19:52:00,-5.0,-10.0,-100.00,NW,324,1.0,1.0,78,-99.99,,,0.00,0.000000,,2013-02-14 04:52:00,
2013-02-13 20:01:00,-5.0,-10.0,-100.00,NW,324,1.0,1.0,78,-99.99,,,0.00,0.000000,,2013-02-14 05:01:00,
2013-02-13 20:52:00,-3.0,-7.0,-100.00,NNE,17,0.0,0.0,82,-99.99,,,0.00,0.000000,,2013-02-14 05:52:00,
2013-02-13 21:02:00,-3.0,-7.0,-100.00,NNE,17,0.0,0.0,82,-99.99,,,0.00,0.000000,,2013-02-14 06:02:00,
2013-02-13 21:52:00,-5.0,-10.0,-100.00,NNW,340,0.0,1.0,78,0.00,,,0.00,0.000000,,2013-02-14 06:52:00,
2013-02-13 22:01:00,-5.0,-10.0,-100.00,NNW,340,0.0,1.0,78,0.00,,,0.00,0.000000,,2013-02-14 07:01:00,
2013-02-13 22:52:00,-5.0,-10.0,-100.00,NNE,19,0.0,0.0,78,0.00,,,0.00,0.000000,,2013-02-14 07:52:00,
2013-02-13 23:01:00,-5.0,-10.0,-100.00,NNE,19,0.0,0.0,78,0.00,,,0.00,0.000000,,2013-02-14 08:01:00,
2013-02-13 23:52:00,-6.0,-12.0,-100.00,NW,308,0.0,0.0,75,-99.99,,,0.00,0.000000,,2013-02-14 08:52:00,